createdAt,value
2023-04-02T00:00:36.677Z,77.07
2023-04-02T00:03:27.837Z,68.25
2023-04-02T00:06:34.512Z,95.15
2023-04-02T00:09:33.005Z,74.15
2023-04-02T00:12:57.862Z,92.22
2023-04-02T00:18:59.369Z,73.18
2023-04-02T00:22:08.096Z,77.07
2023-04-02T00:25:02.693Z,89.82
2023-04-02T00:31:21.972Z,82.30
2023-04-02T00:34:03.707Z,83.40
2023-04-02T00:36:48.413Z,99.85
2023-04-02T00:39:32.517Z,77.57
2023-04-02T00:42:23.776Z,95.95
2023-04-02T00:45:39.136Z,104.78
2023-04-02T00:48:57.126Z,120.90
2023-04-02T00:51:29.608Z,81.25
2023-04-02T00:54:02.836Z,139.70
2023-04-02T00:56:37.601Z,152.73
2023-04-02T00:59:22.757Z,125.27
2023-04-02T01:01:55.918Z,134.23
2023-04-02T01:04:35.127Z,131.63
2023-04-02T01:07:10.103Z,97.55
2023-04-02T01:09:54.597Z,123.17
2023-04-02T01:12:41.560Z,100.75
2023-04-02T01:15:19.550Z,86.63
2023-04-02T01:18:10.116Z,71.57
2023-04-02T01:21:06.648Z,65.35
2023-04-02T01:23:50.030Z,56.00
2023-04-02T01:26:34.497Z,39.08
2023-04-02T01:29:10.737Z,45.83
2023-04-02T01:31:40.957Z,39.17
2023-04-02T01:34:13.989Z,39.67
2023-04-02T01:36:51.713Z,32.95
2023-04-02T01:39:32.218Z,27.63
2023-04-02T01:42:20.569Z,44.38
2023-04-02T01:44:52.672Z,46.20
2023-04-02T01:47:25.095Z,44.72
2023-04-02T01:49:58.781Z,39.63
2023-04-02T01:52:36.967Z,51.28
2023-04-02T01:55:06.945Z,52.42
2023-04-02T01:57:36.395Z,51.10
2023-04-02T02:00:13.902Z,51.13
2023-04-02T02:02:44.369Z,42.05
2023-04-02T02:05:17.770Z,39.65
2023-04-02T02:07:47.410Z,43.95
2023-04-02T02:10:18.727Z,42.20
2023-04-02T02:12:49.447Z,40.42
2023-04-02T02:15:22.190Z,41.85
2023-04-02T02:17:52.004Z,39.00
2023-04-02T02:20:21.535Z,38.70
2023-04-02T02:22:53.182Z,43.05
2023-04-02T02:25:24.887Z,35.17
2023-04-02T02:28:07.671Z,34.53
2023-04-02T02:30:44.104Z,38.28
2023-04-02T02:33:19.255Z,41.67
2023-04-02T02:35:54.582Z,40.20
2023-04-02T02:38:40.891Z,47.38
2023-04-02T02:41:17.390Z,51.25
2023-04-02T02:43:59.556Z,38.25
2023-04-02T02:46:31.883Z,40.47
2023-04-02T02:49:04.834Z,38.55
2023-04-02T02:51:44.015Z,38.45
2023-04-02T02:54:13.993Z,25.00
2023-04-02T02:56:47.847Z,21.60
2023-04-02T02:59:18.937Z,26.65
2023-04-02T03:01:49.888Z,32.05
2023-04-02T03:04:23.802Z,16.95
2023-04-02T03:06:55.237Z,12.25
2023-04-02T03:09:36.661Z,12.25
2023-04-02T03:12:15.599Z,17.33
2023-04-02T03:14:50.881Z,20.85
2023-04-02T03:17:26.104Z,12.68
2023-04-02T03:20:01.983Z,26.17
2023-04-02T03:22:37.797Z,20.45
2023-04-02T03:25:19.191Z,22.23
2023-04-02T03:27:52.438Z,15.15
2023-04-02T03:30:30.975Z,19.80
2023-04-02T03:33:06.921Z,20.10
2023-04-02T03:38:14.848Z,14.07
2023-04-02T03:40:47.534Z,59.28
2023-04-02T03:43:23.729Z,26.83
2023-04-02T03:45:57.396Z,14.55
2023-04-02T03:48:32.057Z,19.40
2023-04-02T03:51:08.082Z,17.67
2023-04-02T03:53:37.351Z,19.15
2023-04-02T03:56:08.304Z,21.45
2023-04-02T03:58:43.154Z,21.55
2023-04-02T04:01:26.183Z,24.80
2023-04-02T04:03:59.459Z,13.77
2023-04-02T04:06:31.563Z,20.67
2023-04-02T04:09:07.803Z,23.85
2023-04-02T04:11:39.378Z,15.93
2023-04-02T04:14:11.642Z,15.48
2023-04-02T04:16:47.950Z,16.15
2023-04-02T04:19:25.256Z,23.08
2023-04-02T04:21:58.393Z,20.58
2023-04-02T04:24:29.541Z,19.50
2023-04-02T04:27:04.414Z,30.90
2023-04-02T04:29:41.062Z,20.00
2023-04-02T04:32:21.448Z,17.77
2023-04-02T04:34:54.134Z,25.00
2023-04-02T04:37:33.929Z,25.45
2023-04-02T04:40:13.175Z,27.38
2023-04-02T04:42:45.937Z,25.42
2023-04-02T04:45:33.695Z,13.02
2023-04-02T04:48:07.350Z,22.02
2023-04-02T04:50:48.362Z,24.15
2023-04-02T04:53:19.573Z,17.88
2023-04-02T04:55:54.295Z,23.00
2023-04-02T04:58:27.728Z,19.95
2023-04-02T05:01:04.266Z,33.20
2023-04-02T05:03:38.849Z,29.85
2023-04-02T05:06:17.923Z,26.10
2023-04-02T05:08:51.025Z,15.30
2023-04-02T05:11:28.553Z,22.52
2023-04-02T05:14:03.135Z,17.75
2023-04-02T05:16:38.729Z,21.77
2023-04-02T05:19:13.081Z,18.00
2023-04-02T05:21:49.206Z,19.33
2023-04-02T05:24:43.408Z,15.60
2023-04-02T05:27:23.145Z,15.05
2023-04-02T05:29:57.560Z,15.48
2023-04-02T05:32:30.584Z,17.45
2023-04-02T05:35:00.329Z,16.60
2023-04-02T05:37:32.458Z,12.40
2023-04-02T05:40:14.005Z,13.93
2023-04-02T05:42:49.550Z,11.93
2023-04-02T05:45:27.730Z,12.43
2023-04-02T05:48:02.177Z,14.80
2023-04-02T05:50:37.795Z,17.40
2023-04-02T05:53:12.945Z,15.13
2023-04-02T05:55:50.695Z,21.70
2023-04-02T06:01:12.460Z,15.10
2023-04-02T06:03:49.592Z,21.27
2023-04-02T06:06:29.138Z,18.40
2023-04-02T06:09:06.050Z,18.00
2023-04-02T06:11:42.878Z,20.63
2023-04-02T06:14:14.175Z,18.48
